createdAt,value
2018-06-17T00:01:07.122Z,8.30
2018-06-17T00:03:36.775Z,8.27
2018-06-17T00:06:06.511Z,8.37
2018-06-17T00:08:36.178Z,9.07
2018-06-17T00:11:05.796Z,8.87
2018-06-17T00:13:35.499Z,8.90
2018-06-17T00:16:05.272Z,8.40
2018-06-17T00:18:34.887Z,9.17
2018-06-17T00:21:04.616Z,9.80
2018-06-17T00:23:34.252Z,8.87
2018-06-17T00:26:03.862Z,9.17
2018-06-17T00:28:33.577Z,9.77
2018-06-17T00:31:03.227Z,8.97
2018-06-17T00:33:32.965Z,9.43
2018-06-17T00:36:02.620Z,8.63
2018-06-17T00:38:32.237Z,9.43
2018-06-17T00:41:01.966Z,9.00
2018-06-17T00:43:31.725Z,9.30
2018-06-17T00:46:01.350Z,9.73
2018-06-17T00:48:31.028Z,8.77
2018-06-17T00:51:00.807Z,8.53
2018-06-17T00:53:30.428Z,8.90
2018-06-17T00:56:00.089Z,8.77
2018-06-17T00:58:29.804Z,8.70
2018-06-17T01:00:59.473Z,9.23
2018-06-17T01:03:29.124Z,8.40
2018-06-17T01:05:58.742Z,7.60
2018-06-17T01:08:28.440Z,8.53
2018-06-17T01:10:58.337Z,9.90
2018-06-17T01:13:27.384Z,8.53
2018-06-17T01:15:57.088Z,9.17
2018-06-17T01:18:26.706Z,8.40
2018-06-17T01:20:56.412Z,8.63
2018-06-17T01:23:26.023Z,8.93
2018-06-17T01:25:55.628Z,9.17
2018-06-17T01:28:25.278Z,9.83
2018-06-17T01:30:54.925Z,8.70
2018-06-17T01:33:24.548Z,8.73
2018-06-17T01:35:54.231Z,9.13
2018-06-17T01:38:23.811Z,8.43
2018-06-17T01:40:53.528Z,9.43
2018-06-17T01:43:23.228Z,8.70
2018-06-17T01:45:52.897Z,8.97
2018-06-17T01:48:22.571Z,8.93
2018-06-17T01:50:52.240Z,8.73
2018-06-17T01:53:21.996Z,10.20
2018-06-17T01:55:51.716Z,8.57
2018-06-17T01:58:21.355Z,8.80
2018-06-17T02:00:51.009Z,8.47
2018-06-17T02:03:25.738Z,8.57
2018-06-17T02:05:59.945Z,8.83
2018-06-17T02:08:34.675Z,8.70
2018-06-17T02:11:09.608Z,8.53
2018-06-17T02:13:39.357Z,9.57
2018-06-17T02:16:09.001Z,9.80
2018-06-17T02:18:38.634Z,9.10
2018-06-17T02:21:08.327Z,8.40
2018-06-17T02:23:38.057Z,9.90
2018-06-17T02:26:07.764Z,8.20
2018-06-17T02:28:37.380Z,8.90
2018-06-17T02:31:06.984Z,8.50
2018-06-17T02:33:36.570Z,9.90
2018-06-17T02:36:06.200Z,9.77
2018-06-17T02:38:35.838Z,8.90
2018-06-17T02:41:05.552Z,8.77
2018-06-17T02:43:35.224Z,9.30
2018-06-17T02:46:09.839Z,8.87
2018-06-17T02:48:44.538Z,7.90
2018-06-17T02:51:19.228Z,9.10
2018-06-17T02:53:54.043Z,8.70
2018-06-17T02:56:23.827Z,8.10
2018-06-17T02:58:53.450Z,8.50
2018-06-17T03:01:23.179Z,7.97
2018-06-17T03:03:52.908Z,8.70
2018-06-17T03:06:22.447Z,9.00
2018-06-17T03:08:52.067Z,9.40
2018-06-17T03:11:21.740Z,7.67
2018-06-17T03:13:51.437Z,8.57
2018-06-17T03:16:21.092Z,9.43
2018-06-17T03:18:50.775Z,9.67
2018-06-17T03:21:20.360Z,9.23
2018-06-17T03:23:50.001Z,8.00
2018-06-17T03:26:24.694Z,8.73
2018-06-17T03:28:59.465Z,8.23
2018-06-17T03:31:33.104Z,9.13
2018-06-17T03:34:02.696Z,9.33
2018-06-17T03:36:32.407Z,9.83
2018-06-17T03:39:02.014Z,8.50
2018-06-17T03:41:31.618Z,9.30
2018-06-17T03:44:00.599Z,8.60
2018-06-17T03:46:30.220Z,8.77
2018-06-17T03:48:59.880Z,8.30
2018-06-17T03:51:29.607Z,9.27
2018-06-17T03:53:59.317Z,9.00
2018-06-17T03:56:28.952Z,8.77
2018-06-17T03:58:58.542Z,9.87
2018-06-17T04:01:28.188Z,9.50
2018-06-17T04:03:57.804Z,8.67
2018-06-17T04:06:27.423Z,8.63
2018-06-17T04:08:57.037Z,8.73
2018-06-17T04:11:26.675Z,8.93
2018-06-17T04:13:56.377Z,9.00
2018-06-17T04:16:25.979Z,9.53
2018-06-17T04:18:55.674Z,8.53
2018-06-17T04:21:25.264Z,9.43
2018-06-17T04:23:54.903Z,8.53
2018-06-17T04:26:24.575Z,8.77
2018-06-17T04:28:54.206Z,8.90
2018-06-17T04:31:23.794Z,9.10
2018-06-17T04:33:53.541Z,9.53
2018-06-17T04:36:23.234Z,9.13
2018-06-17T04:38:52.838Z,8.33
2018-06-17T04:41:22.522Z,9.33
2018-06-17T04:43:52.197Z,9.37
2018-06-17T04:46:21.845Z,8.53
2018-06-17T04:48:51.472Z,8.90
2018-06-17T04:51:21.068Z,8.07
2018-06-17T04:53:50.673Z,10.30
2018-06-17T04:56:20.295Z,8.30
2018-06-17T04:58:49.927Z,8.23
2018-06-17T05:01:19.530Z,8.70
2018-06-17T05:03:49.133Z,8.53
2018-06-17T05:06:18.747Z,8.57
2018-06-17T05:08:48.432Z,7.93
2018-06-17T05:11:18.135Z,9.10
2018-06-17T05:13:47.691Z,8.37
2018-06-17T05:16:17.321Z,8.07
2018-06-17T05:18:47.027Z,8.57
2018-06-17T05:21:16.693Z,8.00
2018-06-17T05:23:46.302Z,8.60
2018-06-17T05:26:15.916Z,8.50
2018-06-17T05:28:45.605Z,8.60
2018-06-17T05:31:15.193Z,9.00
2018-06-17T05:33:44.886Z,7.63
2018-06-17T05:36:14.575Z,9.20
2018-06-17T05:38:44.479Z,7.53
2018-06-17T05:41:14.121Z,7.50
2018-06-17T05:43:43.701Z,7.57
2018-06-17T05:46:13.277Z,7.63
2018-06-17T05:48:42.957Z,8.60
2018-06-17T05:51:12.712Z,8.30
2018-06-17T05:53:42.352Z,9.03
2018-06-17T05:56:12.366Z,8.50
2018-06-17T05:58:42.069Z,7.63
2018-06-17T06:01:11.746Z,8.53
2018-06-17T06:03:41.374Z,7.87
2018-06-17T06:06:11.023Z,7.43
2018-06-17T06:08:40.742Z,9.03
2018-06-17T06:11:10.768Z,7.50
2018-06-17T06:13:40.390Z,8.23
2018-06-17T06:16:09.950Z,8.50
2018-06-17T06:18:39.621Z,7.93
2018-06-17T06:21:09.239Z,8.10
2018-06-17T06:23:38.869Z,7.00
2018-06-17T06:26:08.432Z,6.57
2018-06-17T06:28:37.490Z,7.87
2018-06-17T06:31:07.148Z,7.80
2018-06-17T06:33:36.818Z,7.23
2018-06-17T06:36:06.466Z,6.37
2018-06-17T06:38:36.142Z,6.73
2018-06-17T06:41:05.732Z,7.40
2018-06-17T06:43:35.428Z,6.93
2018-06-17T06:46:05.123Z,7.87
2018-06-17T06:48:34.719Z,6.47
2018-06-17T06:51:04.466Z,7.10
2018-06-17T06:53:34.082Z,6.43
2018-06-17T06:56:03.816Z,6.93
2018-06-17T06:58:33.456Z,6.37
2018-06-17T07:01:03.270Z,6.87
2018-06-17T07:03:43.466Z,6.53
2018-06-17T07:06:23.944Z,6.43
2018-06-17T07:09:04.996Z,7.00
2018-06-17T07:11:34.874Z,6.30
2018-06-17T07:14:04.550Z,6.83
2018-06-17T07:16:44.909Z,7.10
2018-06-17T07:19:14.632Z,7.17
2018-06-17T07:21:44.256Z,7.27
2018-06-17T07:24:13.900Z,6.60
2018-06-17T07:26:56.480Z,7.27
2018-06-17T07:29:39.088Z,6.37
2018-06-17T07:32:09.236Z,6.13
2018-06-17T07:34:38.916Z,7.20
2018-06-17T07:37:08.836Z,7.50
2018-06-17T07:39:51.045Z,6.00
2018-06-17T07:42:20.682Z,7.03
2018-06-17T07:44:50.756Z,6.73
2018-06-17T07:47:20.405Z,7.40
2018-06-17T07:50:00.643Z,7.10
2018-06-17T07:52:40.996Z,6.80
2018-06-17T13:09:38.348Z,6.40
2018-06-17T13:12:08.562Z,5.80
2018-06-17T13:14:38.508Z,6.07
2018-06-17T13:17:08.722Z,6.60
2018-06-17T13:19:38.582Z,6.27
2018-06-17T13:22:08.844Z,6.30
2018-06-17T13:24:39.170Z,5.40
2018-06-17T13:27:09.292Z,6.03
2018-06-17T13:29:39.559Z,6.53
2018-06-17T13:32:09.669Z,5.60
2018-06-17T13:34:39.916Z,6.30
2018-06-17T13:37:09.983Z,7.03
2018-06-17T13:39:40.054Z,6.93
2018-06-17T13:42:10.037Z,6.00
2018-06-17T13:44:40.049Z,5.67
2018-06-17T13:47:10.192Z,6.00
2018-06-17T13:49:40.643Z,6.47
2018-06-17T13:52:10.724Z,5.40
2018-06-17T13:54:40.628Z,5.77
2018-06-17T13:57:10.518Z,6.70
2018-06-17T13:59:40.216Z,6.00
2018-06-17T14:02:09.902Z,5.43
2018-06-17T14:04:39.587Z,5.43
2018-06-17T14:07:09.441Z,5.43
2018-06-17T14:09:39.141Z,5.40
2018-06-17T14:12:08.866Z,5.70
2018-06-17T14:14:38.605Z,5.67
2018-06-17T14:17:08.241Z,4.73
2018-06-17T14:19:37.914Z,5.40
2018-06-17T14:22:07.628Z,6.03
2018-06-17T14:24:37.294Z,6.30
2018-06-17T14:27:07.057Z,6.00
2018-06-17T14:29:36.993Z,5.37
2018-06-17T14:32:06.662Z,5.20
2018-06-17T14:34:36.414Z,5.93
2018-06-17T14:37:06.171Z,5.37
2018-06-17T14:39:35.900Z,5.90
2018-06-17T14:42:10.784Z,6.00
2018-06-17T14:44:45.998Z,6.10
2018-06-17T14:47:20.704Z,5.83
2018-06-17T14:50:53.284Z,6.10
2018-06-17T14:53:23.070Z,5.87
2018-06-17T14:55:52.967Z,6.97
2018-06-17T14:58:22.732Z,5.60
2018-06-17T15:00:52.496Z,6.20
2018-06-17T15:03:22.241Z,5.80
2018-06-17T15:05:52.065Z,6.07
2018-06-17T15:08:21.812Z,5.73
2018-06-17T15:10:51.583Z,6.20
2018-06-17T15:13:21.758Z,6.03
2018-06-17T15:15:51.812Z,5.83
2018-06-17T15:18:21.589Z,6.13
2018-06-17T15:20:51.881Z,6.83
2018-06-17T15:23:21.662Z,7.07
2018-06-17T15:25:51.532Z,6.70
2018-06-17T15:28:21.327Z,8.10
2018-06-17T15:30:51.189Z,7.33
2018-06-17T15:33:26.035Z,7.57
2018-06-17T15:36:00.937Z,8.00
2018-06-17T15:38:35.916Z,7.00
2018-06-17T15:41:10.766Z,7.03
2018-06-17T15:43:40.542Z,7.03
2018-06-17T15:46:10.372Z,7.70
2018-06-17T15:48:40.070Z,7.63
2018-06-17T15:51:09.835Z,6.50
2018-06-17T15:53:39.875Z,7.00
2018-06-17T15:56:09.733Z,6.40
2018-06-17T15:58:39.922Z,7.33
2018-06-17T16:01:10.462Z,6.80
2018-06-17T16:03:40.789Z,5.90
2018-06-17T16:06:11.249Z,7.00
2018-06-17T16:08:41.475Z,7.00
2018-06-17T16:11:11.434Z,7.10
2018-06-17T16:13:46.244Z,7.07
2018-06-17T16:16:21.140Z,7.37
2018-06-17T16:18:57.132Z,7.37
2018-06-17T16:21:27.444Z,7.27
2018-06-17T16:23:57.621Z,7.00
2018-06-17T16:26:27.715Z,7.03
2018-06-17T16:28:57.712Z,6.63
2018-06-17T16:31:27.786Z,6.90
2018-06-17T16:33:57.867Z,6.93
2018-06-17T16:36:28.278Z,6.97
2018-06-17T16:38:58.290Z,7.13
2018-06-17T16:41:28.525Z,7.40
2018-06-17T16:43:58.408Z,6.57
2018-06-17T16:46:28.700Z,6.47
2018-06-17T16:48:58.805Z,6.60
2018-06-17T16:51:33.893Z,7.03
2018-06-17T16:54:08.771Z,6.77
2018-06-17T16:56:43.452Z,6.40
2018-06-17T16:59:18.236Z,6.43
2018-06-17T17:01:47.913Z,6.33
2018-06-17T17:16:29.984Z,6.77
2018-06-17T17:18:59.848Z,6.37
2018-06-17T17:21:29.731Z,7.70
2018-06-17T17:23:59.675Z,7.40
2018-06-17T17:26:29.582Z,7.40
2018-06-17T17:28:59.399Z,8.20
2018-06-17T17:31:33.467Z,6.73
2018-06-17T17:34:08.677Z,7.57
2018-06-17T17:36:43.980Z,6.63
2018-06-17T17:39:18.903Z,8.17
2018-06-17T17:41:49.199Z,7.33
2018-06-17T17:44:19.651Z,7.10
2018-06-17T17:46:55.171Z,6.60
2018-06-17T17:49:25.609Z,7.77
2018-06-17T17:51:55.878Z,8.00
2018-06-17T17:54:26.227Z,6.37
2018-06-17T17:56:56.650Z,7.70
2018-06-17T17:59:27.012Z,6.50
2018-06-17T18:01:57.414Z,8.00
2018-06-17T18:04:27.835Z,7.63
2018-06-17T18:06:58.242Z,8.20
2018-06-17T18:09:28.752Z,8.03
2018-06-17T18:11:59.326Z,8.13
2018-06-17T18:14:30.057Z,7.90
2018-06-17T18:17:00.613Z,7.70
2018-06-17T18:19:31.188Z,8.33
2018-06-17T18:22:04.208Z,7.00
2018-06-17T18:24:34.620Z,7.20
2018-06-17T18:27:09.771Z,8.33
2018-06-17T18:29:45.147Z,7.70
2018-06-17T18:33:23.390Z,7.80
2018-06-17T18:35:59.463Z,7.63
2018-06-17T18:38:30.026Z,8.80
2018-06-17T18:41:00.531Z,8.00
2018-06-17T18:43:30.983Z,8.60
2018-06-17T18:46:05.456Z,7.10
2018-06-17T18:48:36.013Z,7.17
2018-06-17T18:51:06.582Z,7.33
2018-06-17T18:53:37.239Z,7.60
2018-06-17T18:56:07.783Z,7.97
2018-06-17T18:58:38.163Z,8.50
2018-06-17T19:01:08.628Z,7.53
2018-06-17T19:03:39.715Z,8.33
2018-06-17T19:06:10.225Z,7.73
2018-06-17T19:08:46.539Z,7.57
2018-06-17T19:11:21.865Z,8.27
2018-06-17T19:13:57.208Z,7.90
2018-06-17T19:16:33.087Z,8.20
2018-06-17T19:19:03.603Z,8.10
2018-06-17T19:21:35.532Z,8.10
2018-06-17T19:24:06.038Z,8.77
2018-06-17T19:26:36.450Z,8.37
2018-06-17T19:29:07.002Z,8.80
2018-06-17T19:31:37.577Z,8.10
2018-06-17T19:34:08.478Z,9.00
2018-06-17T19:36:39.894Z,8.37
2018-06-17T19:39:12.008Z,8.77
2018-06-17T19:41:42.501Z,8.87
2018-06-17T19:44:13.000Z,9.67
2018-06-17T19:46:44.360Z,9.00
2018-06-17T19:49:14.912Z,8.87
2018-06-17T19:51:50.069Z,9.17
2018-06-17T19:54:25.323Z,9.20
2018-06-17T19:57:00.667Z,9.67
2018-06-17T19:59:35.849Z,9.37
2018-06-17T20:02:06.323Z,9.90
2018-06-17T20:04:36.709Z,10.50
2018-06-17T20:07:07.327Z,9.80
2018-06-17T20:09:38.403Z,9.73
2018-06-17T20:12:08.824Z,9.53
2018-06-17T20:14:39.326Z,10.00
2018-06-17T20:17:09.745Z,9.60
2018-06-17T20:19:40.132Z,9.53
2018-06-17T20:22:10.585Z,10.40
2018-06-17T20:24:41.082Z,10.90
2018-06-17T20:27:11.584Z,10.73
2018-06-17T20:29:42.003Z,10.70
2018-06-17T20:32:17.261Z,9.87
2018-06-17T20:34:52.419Z,10.30
2018-06-17T20:37:27.579Z,10.80
2018-06-17T20:40:02.643Z,10.77
2018-06-17T20:42:37.829Z,11.40
2018-06-17T20:45:08.323Z,10.10
2018-06-17T20:47:38.722Z,10.03
2018-06-17T20:50:09.175Z,10.37
2018-06-17T20:52:39.656Z,11.33
2018-06-17T20:55:10.037Z,10.17
2018-06-17T20:57:40.354Z,10.27
2018-06-17T21:00:10.549Z,11.17
2018-06-17T21:02:40.714Z,9.90
2018-06-17T21:05:10.621Z,10.07
2018-06-17T21:07:40.632Z,10.97
2018-06-17T21:10:10.551Z,10.53
2018-06-17T21:12:40.327Z,11.30
2018-06-17T21:15:15.284Z,9.90
2018-06-17T21:17:44.903Z,9.40
2018-06-17T21:20:19.743Z,9.70
2018-06-17T21:22:54.536Z,10.60
2018-06-17T21:25:29.361Z,10.40
2018-06-17T21:28:00.555Z,11.57
2018-06-17T21:30:30.134Z,10.30
2018-06-17T21:32:59.864Z,9.50
2018-06-17T21:35:29.499Z,10.70
2018-06-17T21:37:59.160Z,11.07
2018-06-17T21:40:28.739Z,9.33
2018-06-17T21:42:58.387Z,9.10
2018-06-17T21:45:28.147Z,10.20
2018-06-17T21:47:57.760Z,9.67
2018-06-17T21:50:27.661Z,9.60
2018-06-17T21:52:57.374Z,9.67
2018-06-17T21:55:27.020Z,10.30
2018-06-17T21:57:56.658Z,10.37
2018-06-17T22:00:26.237Z,9.20
2018-06-17T22:02:55.813Z,9.70
2018-06-17T22:05:25.465Z,9.60
2018-06-17T22:08:00.142Z,9.23
2018-06-17T22:10:34.772Z,10.13
2018-06-17T22:13:04.438Z,8.70
2018-06-17T22:15:39.335Z,9.07
2018-06-17T22:18:09.019Z,8.53
2018-06-17T22:20:38.749Z,9.40
2018-06-17T22:23:08.470Z,9.70
2018-06-17T22:25:38.179Z,9.30
2018-06-17T22:28:07.783Z,8.80
2018-06-17T22:30:37.384Z,9.30
2018-06-17T22:33:07.032Z,8.50
2018-06-17T22:35:36.692Z,10.67
2018-06-17T22:38:06.324Z,8.37
2018-06-17T22:40:36.063Z,8.47
2018-06-17T22:43:05.699Z,8.70
2018-06-17T22:45:35.274Z,8.17
2018-06-17T22:48:04.961Z,8.13
2018-06-17T22:50:34.530Z,9.00
2018-06-17T22:53:14.909Z,9.17
2018-06-17T22:55:43.864Z,8.70
2018-06-17T22:58:18.648Z,8.53
2018-06-17T23:00:53.470Z,9.80
2018-06-17T23:03:28.378Z,8.63
2018-06-17T23:06:03.033Z,8.90
2018-06-17T23:08:37.813Z,8.17
2018-06-17T23:11:07.450Z,7.90
2018-06-17T23:13:37.128Z,8.07
2018-06-17T23:16:06.842Z,9.00
2018-06-17T23:18:36.425Z,9.40
2018-06-17T23:21:05.989Z,9.80
2018-06-17T23:23:35.659Z,8.80
2018-06-17T23:26:05.360Z,7.70
2018-06-17T23:28:35.041Z,9.30
2018-06-17T23:31:04.683Z,8.90
2018-06-17T23:33:34.435Z,9.63
2018-06-17T23:36:04.085Z,9.27
2018-06-17T23:38:33.647Z,7.83
2018-06-17T23:41:03.304Z,9.23
2018-06-17T23:43:33.036Z,8.87
2018-06-17T23:46:07.735Z,8.87
2018-06-17T23:48:42.409Z,9.90
2018-06-17T23:51:17.061Z,8.20
2018-06-17T23:53:51.657Z,8.23
2018-06-17T23:56:21.355Z,8.50
2018-06-17T23:58:50.954Z,8.67
